Time;durP1;ratioP1;P1;durP2;ratioP2;P2;SDS_P1;SDS_P2;PMS_P1;PMS_P2;Temp;Humidity;BMP_temperature;BMP_pressure;BME280_temperature;BME280_humidity;BME280_pressure;Samples;Min_cycle;Max_cycle;Signal;HPM_P1;HPM_P2
2021/11/10 00:02:26;;;;;;;10.70;4.43;;;;;;;-1.02;65.66;101626.67;1835062;77;20899;-57
2021/11/10 00:04:53;;;;;;;16.23;5.77;;;;;;;-1.01;65.68;101634.62;1842265;77;22492;-57
2021/11/10 00:07:20;;;;;;;15.10;5.07;;;;;;;-1.02;65.67;101634.60;1836099;76;20898;-57
2021/11/10 00:09:48;;;;;;;12.03;5.60;;;;;;;-1.04;65.69;101642.48;1836211;76;20835;-57
2021/11/10 00:14:27;;;;;;;8.33;3.17;;;;;;;-1.03;65.70;101640.73;1848608;75;26740;-57
2021/11/10 00:16:55;;;;;;;12.20;4.87;;;;;;;-1.10;65.80;101650.64;1807087;77;21028;-57
2021/11/10 00:19:23;;;;;;;14.70;4.57;;;;;;;-1.12;65.79;101655.91;1809382;77;21203;-57
2021/11/10 00:21:50;;;;;;;13.17;4.43;;;;;;;-1.13;65.82;101655.43;1806416;77;21005;-57
2021/11/10 00:24:17;;;;;;;11.60;5.00;;;;;;;-1.16;65.89;101660.19;1740283;80;21046;-57
2021/11/10 00:26:44;;;;;;;11.70;4.37;;;;;;;-1.18;65.89;101663.20;1775318;78;20965;-57
2021/11/10 00:29:12;;;;;;;12.00;4.77;;;;;;;-1.20;65.88;101669.31;1774948;78;21069;-57
2021/11/10 00:31:40;;;;;;;16.93;5.87;;;;;;;-1.24;65.92;101674.92;1774195;78;20997;-57
2021/11/10 00:34:07;;;;;;;13.47;5.17;;;;;;;-1.25;65.96;101674.45;1791914;79;21013;-57
2021/11/10 00:36:33;;;;;;;12.50;5.30;;;;;;;-1.28;65.98;101677.45;1790225;77;21064;-57
2021/11/10 00:39:00;;;;;;;15.43;6.20;;;;;;;-1.31;66.10;101684.84;1784965;77;21037;-57
2021/11/10 00:41:26;;;;;;;10.43;5.13;;;;;;;-1.32;66.18;101681.73;1766644;79;21148;-57
2021/11/10 00:43:52;;;;;;;10.53;3.90;;;;;;;-1.31;66.19;101683.95;1770831;78;21105;-57
2021/11/10 00:46:18;;;;;;;11.87;4.93;;;;;;;-1.31;66.22;101683.52;1788437;77;21041;-57
2021/11/10 00:48:46;;;;;;;11.30;5.07;;;;;;;-1.31;66.11;101683.52;1786031;77;21033;-57
2021/11/10 00:51:13;;;;;;;17.33;7.83;;;;;;;-1.33;66.13;101678.61;1790624;77;21006;-57
2021/11/10 00:53:39;;;;;;;15.87;5.53;;;;;;;-1.35;66.11;101682.04;1788858;77;21071;-57
2021/11/10 00:56:06;;;;;;;11.23;5.80;;;;;;;-1.37;66.17;101679.80;1793594;77;21667;-57
2021/11/10 00:58:33;;;;;;;15.83;6.23;;;;;;;-1.39;66.18;101681.08;1791798;77;21319;-57
2021/11/10 01:00:59;;;;;;;10.47;4.73;;;;;;;-1.43;66.18;101685.77;1787478;77;21060;-57
2021/11/10 01:03:27;;;;;;;15.67;6.33;;;;;;;-1.43;66.19;101689.73;1796849;79;21404;-57
2021/11/10 01:05:56;;;;;;;17.07;5.67;;;;;;;-1.46;66.11;101680.42;1783884;79;21091;-57
2021/11/10 01:08:22;;;;;;;14.63;5.77;;;;;;;-1.49;66.15;101672.81;1790085;79;21141;-57
2021/11/10 01:10:50;;;;;;;13.83;6.23;;;;;;;-1.52;66.16;101680.20;1790536;77;21022;-57
2021/11/10 01:13:18;;;;;;;19.83;6.67;;;;;;;-1.56;66.17;101678.34;1789944;77;21072;-57
2021/11/10 01:15:45;;;;;;;14.33;5.60;;;;;;;-1.60;66.30;101679.07;1792346;77;21084;-57
2021/11/10 01:18:12;;;;;;;16.37;7.47;;;;;;;-1.63;66.33;101677.67;1789434;78;21036;-57
2021/11/10 01:20:38;;;;;;;17.83;8.03;;;;;;;-1.68;66.25;101689.81;1792216;77;21076;-57
2021/11/10 01:23:05;;;;;;;17.77;7.77;;;;;;;-1.73;66.36;101691.42;1792706;78;21470;-57
2021/11/10 01:25:34;;;;;;;25.60;11.73;;;;;;;-1.77;66.45;101710.22;1794042;77;20914;-57
2021/11/10 01:28:00;;;;;;;30.83;12.20;;;;;;;-1.79;66.48;101721.59;1793086;77;20878;-57
2021/11/10 01:30:28;;;;;;;31.47;12.13;;;;;;;-1.82;66.73;101718.84;1797350;78;20847;-57
2021/11/10 01:32:56;;;;;;;29.37;11.80;;;;;;;-1.83;66.72;101727.19;1775968;78;21127;-57
2021/11/10 01:35:22;;;;;;;24.83;10.40;;;;;;;-1.85;66.86;101730.19;1793829;78;21408;-58
2021/11/10 01:37:49;;;;;;;21.43;9.17;;;;;;;-1.85;66.95;101737.21;1783761;78;21437;-57
2021/11/10 01:40:17;;;;;;;20.23;9.93;;;;;;;-1.83;67.02;101739.06;1771727;78;21384;-57
2021/11/10 01:42:44;;;;;;;20.13;8.47;;;;;;;-1.83;67.05;101719.69;1794639;78;21073;-57
2021/11/10 01:45:12;;;;;;;20.40;8.60;;;;;;;-1.85;67.16;101721.37;1795257;77;21019;-57
2021/11/10 01:47:39;;;;;;;21.00;10.53;;;;;;;-1.86;67.15;101717.84;1769976;78;21145;-57
2021/11/10 01:50:10;;;;;;;19.00;8.83;;;;;;;-1.88;67.18;101703.72;1772740;78;21062;-57
2021/11/10 01:52:37;;;;;;;22.33;9.33;;;;;;;-1.88;67.16;101697.12;1798602;77;20954;-57
2021/11/10 01:55:05;;;;;;;25.57;9.00;;;;;;;-1.87;67.25;101696.70;1796452;77;20947;-57
2021/11/10 01:57:31;;;;;;;25.17;10.30;;;;;;;-1.87;67.27;101698.88;1793070;77;21062;-58
2021/11/10 02:00:17;;;;;;;26.17;11.47;;;;;;;-1.86;67.18;101701.09;1798180;77;20963;-57
2021/11/10 02:02:48;;;;;;;30.00;13.30;;;;;;;-1.88;67.15;101694.48;1796749;77;21409;-57
2021/11/10 02:05:16;;;;;;;28.37;14.50;;;;;;;-1.91;67.19;101695.27;1773331;78;20915;-57
2021/11/10 02:07:44;;;;;;;30.03;15.37;;;;;;;-1.95;67.25;101689.39;1774937;78;20943;-57
2021/11/10 02:10:12;;;;;;;32.93;16.13;;;;;;;-1.95;67.22;101689.81;1792541;77;21104;-57
2021/11/10 02:12:38;;;;;;;39.23;16.77;;;;;;;-1.97;67.11;101707.37;1794619;77;20930;-57
2021/11/10 02:15:08;;;;;;;35.00;17.60;;;;;;;-1.99;67.06;101705.09;1768935;77;20867;-57
2021/11/10 02:17:35;;;;;;;32.63;15.77;;;;;;;-2.04;67.16;101711.52;1788377;77;21037;-58
2021/11/10 02:20:11;;;;;;;30.83;14.87;;;;;;;-2.05;67.29;101701.84;1801559;78;21021;-58
2021/11/10 02:22:38;;;;;;;26.97;13.25;;;;;;;-2.05;67.35;101705.80;1795282;77;21102;-57
2021/11/10 02:25:08;;;;;;;24.80;11.67;;;;;;;-2.05;67.26;101708.44;1796505;77;20839;-57
2021/11/10 02:27:35;;;;;;;26.33;11.10;;;;;;;-2.07;67.26;101715.81;1795703;77;21785;-57
2021/11/10 02:30:08;;;;;;;23.17;12.70;;;;;;;-2.09;67.41;101724.09;1794924;77;20930;-57
2021/11/10 02:32:36;;;;;;;21.00;9.85;;;;;;;-2.10;67.51;101715.70;1792920;78;20945;-57
2021/11/10 02:35:03;;;;;;;24.87;10.83;;;;;;;-2.08;67.53;101724.58;1791642;77;21089;-57
2021/11/10 02:37:29;;;;;;;22.37;10.43;;;;;;;-2.11;67.44;101729.31;1798868;77;20890;-55
2021/11/10 02:39:56;;;;;;;18.80;8.73;;;;;;;-2.10;67.58;101743.41;1789234;78;20894;-56
2021/11/10 02:42:22;;;;;;;19.50;9.07;;;;;;;-2.12;67.67;101738.07;1795588;78;20883;-55
2021/11/10 02:44:53;;;;;;;19.07;8.40;;;;;;;-2.12;67.79;101731.89;1792802;78;20938;-57
2021/11/10 02:47:20;;;;;;;20.50;8.70;;;;;;;-2.09;67.86;101734.65;1799633;77;21074;-56
2021/11/10 02:49:46;;;;;;;20.00;9.40;;;;;;;-2.09;67.90;101737.29;1793577;77;20910;-56
2021/11/10 02:52:17;;;;;;;22.27;9.50;;;;;;;-2.09;68.08;101733.33;1793978;78;20910;-58
2021/11/10 02:54:53;;;;;;;22.97;9.03;;;;;;;-2.06;68.12;101747.96;1794713;78;20917;-58
2021/11/10 02:57:19;;;;;;;18.13;8.00;;;;;;;-2.07;68.30;101743.52;1797878;77;20949;-58
2021/11/10 02:59:46;;;;;;;18.37;8.77;;;;;;;-2.05;68.35;101743.16;1792083;78;21076;-58
2021/11/10 03:02:12;;;;;;;19.17;8.47;;;;;;;-2.05;68.33;101749.76;1794070;77;20906;-58
2021/11/10 03:04:46;;;;;;;20.93;12.63;;;;;;;-2.06;68.36;101744.90;1793719;77;20941;-58
2021/11/10 03:07:13;;;;;;;21.43;10.60;;;;;;;-2.06;68.41;101747.96;1794463;77;20937;-58
2021/11/10 03:09:41;;;;;;;16.83;9.13;;;;;;;-2.04;68.37;101737.05;1797670;78;20941;-58
2021/11/10 03:12:10;;;;;;;21.37;11.50;;;;;;;-2.06;68.35;101738.30;1796221;78;21108;-58
2021/11/10 03:14:38;;;;;;;21.00;12.10;;;;;;;-2.08;68.35;101737.34;1792741;77;21423;-58
2021/11/10 03:17:07;;;;;;;20.73;12.53;;;;;;;-2.08;68.40;101747.90;1797061;79;20910;-58
2021/11/10 03:19:35;;;;;;;32.77;21.20;;;;;;;-2.07;68.31;101748.37;1787402;79;20889;-58
2021/11/10 03:22:02;;;;;;;29.87;17.37;;;;;;;-2.07;68.40;101756.72;1789605;77;21024;-58
2021/11/10 03:24:30;;;;;;;23.73;14.73;;;;;;;-2.07;68.38;101757.61;1770226;79;21515;-58
2021/11/10 03:26:57;;;;;;;22.50;14.80;;;;;;;-2.07;68.39;101769.91;1790120;79;20903;-58
2021/11/10 03:29:23;;;;;;;23.43;13.27;;;;;;;-2.09;68.45;101764.99;1788964;77;20988;-58
2021/11/10 03:31:50;;;;;;;26.40;14.80;;;;;;;-2.08;68.57;101762.83;1785235;77;21005;-58
2021/11/10 03:34:16;;;;;;;23.53;13.57;;;;;;;-2.07;68.57;101743.52;1793381;79;21674;-58
2021/11/10 03:36:43;;;;;;;23.27;12.50;;;;;;;-2.05;68.64;101752.40;1789823;77;21717;-58
2021/11/10 03:39:12;;;;;;;22.80;11.60;;;;;;;-2.01;68.66;101749.00;1792827;79;20961;-58
2021/11/10 03:41:39;;;;;;;20.70;11.90;;;;;;;-1.99;68.62;101747.32;1788539;77;21009;-58
2021/11/10 03:44:08;;;;;;;24.90;13.17;;;;;;;-1.97;68.62;101748.27;1786156;77;20998;-58
2021/11/10 03:46:37;;;;;;;23.37;12.23;;;;;;;-1.96;68.57;101749.62;1786896;79;21053;-58
2021/11/10 03:49:05;;;;;;;19.80;11.50;;;;;;;-1.97;68.55;101745.64;1792110;77;21093;-58
2021/11/10 03:51:32;;;;;;;19.40;10.60;;;;;;;-1.97;68.65;101751.81;1797085;77;20923;-58
2021/11/10 03:53:59;;;;;;;16.40;9.43;;;;;;;-1.96;68.70;101743.48;1790445;79;20931;-58
2021/11/10 03:59:02;;;;;;;16.20;8.73;;;;;;;-1.90;68.79;101742.35;1863914;74;26973;-58
2021/11/10 04:01:29;;;;;;;14.53;7.73;;;;;;;-1.94;68.76;101743.08;1829755;77;21179;-58
2021/11/10 04:03:57;;;;;;;16.10;7.63;;;;;;;-1.95;68.78;101747.88;1834155;77;22345;-58
2021/11/10 04:06:24;;;;;;;16.10;7.53;;;;;;;-1.97;68.69;101749.17;1830993;76;22145;-58
2021/11/10 04:08:51;;;;;;;16.63;7.80;;;;;;;-1.98;68.70;101753.97;1838817;75;21487;-58
2021/11/10 04:11:20;;;;;;;12.63;6.40;;;;;;;-1.99;68.66;101752.59;1769898;78;21508;-58
2021/11/10 04:13:48;;;;;;;17.83;7.50;;;;;;;-2.02;68.60;101752.06;1739287;80;21061;-58
2021/11/10 04:16:19;;;;;;;15.47;6.87;;;;;;;-2.04;68.54;101755.06;1801896;78;21149;-58
2021/11/10 04:18:43;;;;;;;11.60;6.23;;;;;;;-2.08;68.55;101763.73;1777059;77;20952;-58
2021/11/10 04:21:13;;;;;;;15.17;7.40;;;;;;;-2.11;68.54;101757.44;1805208;78;20953;-58
2021/11/10 04:23:41;;;;;;;16.00;6.77;;;;;;;-2.13;68.50;101767.97;1774350;78;21088;-58
2021/11/10 04:26:09;;;;;;;13.20;6.30;;;;;;;-2.14;68.43;101770.55;1796858;77;21040;-58
2021/11/10 04:28:36;;;;;;;13.27;7.13;;;;;;;-2.17;68.52;101774.39;1774327;78;21677;-58
2021/11/10 04:31:03;;;;;;;16.20;5.70;;;;;;;-2.20;68.50;101776.91;1768584;78;21539;-58
2021/11/10 04:33:30;;;;;;;10.40;5.90;;;;;;;-2.22;68.61;101769.38;1773638;78;21251;-58
2021/11/10 04:35:56;;;;;;;12.83;6.73;;;;;;;-2.21;68.71;101773.81;1776620;78;21440;-58
2021/11/10 04:38:23;;;;;;;13.10;5.87;;;;;;;-2.22;68.71;101769.38;1780482;78;21083;-58
2021/11/10 04:40:50;;;;;;;10.87;4.93;;;;;;;-2.23;68.73;101767.58;1726006;80;21137;-58
2021/11/10 04:43:19;;;;;;;11.93;6.30;;;;;;;-2.24;68.74;101762.73;1769697;79;21072;-57
2021/11/10 04:45:50;;;;;;;8.10;4.67;;;;;;;-2.22;68.71;101775.98;1774587;79;22495;-57
2021/11/10 04:48:15;;;;;;;10.50;4.90;;;;;;;-2.22;68.65;101768.97;1775213;79;20906;-57
2021/11/10 04:50:46;;;;;;;12.50;4.87;;;;;;;-2.22;68.66;101764.11;1775986;79;21444;-57
2021/11/10 04:53:13;;;;;;;8.97;3.77;;;;;;;-2.24;68.70;101763.14;1781486;79;22193;-57
2021/11/10 04:55:42;;;;;;;8.23;4.83;;;;;;;-2.24;68.88;101762.73;1776711;79;20937;-57
2021/11/10 04:58:09;;;;;;;15.70;7.73;;;;;;;-2.22;68.90;101754.45;1775662;79;20958;-57
2021/11/10 05:00:36;;;;;;;26.70;12.37;;;;;;;-2.20;68.99;101751.84;1771559;79;21280;-59
2021/11/10 05:03:03;;;;;;;28.23;13.63;;;;;;;-2.19;69.11;101747.94;1773025;79;21095;-59
2021/11/10 05:05:31;;;;;;;28.70;13.10;;;;;;;-2.15;69.09;101750.28;1771805;79;21024;-60
2021/11/10 05:07:58;;;;;;;31.17;14.10;;;;;;;-2.14;69.11;101754.30;1743453;80;21542;-59
2021/11/10 05:10:24;;;;;;;24.80;12.33;;;;;;;-2.12;69.10;101745.09;1780863;78;21049;-57
2021/11/10 05:12:55;;;;;;;25.40;12.07;;;;;;;-2.10;69.17;101740.77;1750711;80;21005;-57
2021/11/10 05:15:21;;;;;;;31.70;13.03;;;;;;;-2.09;69.17;101745.20;1753325;80;21397;-57
2021/11/10 05:17:48;;;;;;;28.07;13.23;;;;;;;-2.08;69.14;101756.23;1751177;79;21552;-59
2021/11/10 05:20:16;;;;;;;26.37;12.77;;;;;;;-2.08;69.01;101770.33;1749855;79;21090;-59
2021/11/10 05:22:45;;;;;;;26.50;12.93;;;;;;;-2.11;69.03;101770.63;1752092;79;21713;-57
2021/11/10 05:25:12;;;;;;;26.13;11.63;;;;;;;-2.11;69.07;101774.59;1751968;79;21128;-57
2021/11/10 05:27:38;;;;;;;23.47;10.70;;;;;;;-2.14;69.03;101782.42;1753382;79;21362;-58
2021/11/10 05:30:06;;;;;;;20.60;9.13;;;;;;;-2.16;68.97;101788.95;1751656;80;21499;-58
2021/11/10 05:32:32;;;;;;;12.70;6.77;;;;;;;-2.19;69.07;101792.80;1756095;79;21667;-57
2021/11/10 05:34:59;;;;;;;14.07;7.30;;;;;;;-2.19;69.08;101799.81;1755476;80;20977;-57
2021/11/10 05:37:27;;;;;;;16.17;7.67;;;;;;;-2.17;69.14;101811.33;1756415;80;20957;-57
2021/11/10 05:39:53;;;;;;;13.33;7.33;;;;;;;-2.14;69.09;101810.13;1757530;80;20891;-59
2021/11/10 05:42:20;;;;;;;20.40;9.33;;;;;;;-2.13;69.10;101803.59;1752716;80;21094;-59
2021/11/10 05:44:47;;;;;;;18.60;8.70;;;;;;;-2.10;69.18;101814.23;1780610;78;20910;-59
2021/11/10 05:47:13;;;;;;;20.73;9.77;;;;;;;-2.06;69.16;101816.56;1756039;79;20910;-59
2021/11/10 05:49:39;;;;;;;31.30;13.10;;;;;;;-2.00;69.20;101812.81;1758408;80;20887;-59
2021/11/10 05:52:07;;;;;;;25.20;12.07;;;;;;;-1.94;69.19;101806.42;1752575;80;20894;-57
2021/11/10 05:54:33;;;;;;;31.20;14.67;;;;;;;-1.86;69.20;101810.64;1782104;78;21099;-57
2021/11/10 05:57:01;;;;;;;26.57;11.93;;;;;;;-1.78;69.24;101817.08;1783453;79;20918;-57
2021/11/10 05:59:28;;;;;;;26.10;12.07;;;;;;;-1.72;69.28;101822.59;1725109;80;20942;-57
2021/11/10 06:01:54;;;;;;;23.57;11.43;;;;;;;-1.64;69.26;101819.38;1716305;81;21456;-58
2021/11/10 06:04:21;;;;;;;19.07;10.57;;;;;;;-1.55;69.16;101811.76;1734654;81;21401;-58
2021/11/10 06:06:48;;;;;;;20.47;8.93;;;;;;;-1.45;69.08;101801.50;1738162;81;21034;-58
2021/11/10 06:09:14;;;;;;;15.97;9.20;;;;;;;-1.40;69.08;101812.67;1736686;81;20938;-57
2021/11/10 06:11:44;;;;;;;20.10;9.50;;;;;;;-1.31;68.97;101814.30;1734928;81;20961;-57
2021/11/10 06:14:09;;;;;;;17.13;8.27;;;;;;;-1.24;68.96;101812.33;1754043;80;20930;-60
2021/11/10 06:16:37;;;;;;;19.90;7.77;;;;;;;-1.15;68.92;101810.40;1746858;80;21014;-57
2021/11/10 06:19:05;;;;;;;16.83;8.87;;;;;;;-1.07;68.85;101808.89;1715981;82;20934;-58
2021/11/10 06:21:32;;;;;;;16.93;8.33;;;;;;;-1.03;68.80;101805.52;1718512;81;20981;-58
2021/11/10 06:23:58;;;;;;;11.47;6.27;;;;;;;-0.96;68.67;101806.17;1716245;82;21415;-58
2021/11/10 06:26:26;;;;;;;19.80;6.93;;;;;;;-0.93;68.57;101807.98;1718420;81;21271;-58
2021/11/10 06:28:52;;;;;;;16.07;6.80;;;;;;;-0.90;68.54;101808.09;1750961;80;21104;-58
2021/11/10 06:31:19;;;;;;;13.53;6.43;;;;;;;-0.86;68.49;101802.06;1724679;81;21506;-58
2021/11/10 06:33:45;;;;;;;13.07;6.37;;;;;;;-0.83;68.54;101803.03;1752367;80;21722;-58
2021/11/10 06:36:12;;;;;;;13.50;6.93;;;;;;;-0.76;68.47;101810.30;1749317;80;21459;-58
2021/11/10 06:38:38;;;;;;;13.80;6.47;;;;;;;-0.69;68.40;101812.72;1751654;80;21556;-58
2021/11/10 06:41:04;;;;;;;11.20;5.60;;;;;;;-0.64;68.49;101809.77;1754602;80;21104;-58
2021/11/10 06:43:32;;;;;;;12.60;6.87;;;;;;;-0.58;68.43;101813.02;1750772;80;22496;-58
2021/11/10 06:46:00;;;;;;;12.43;6.57;;;;;;;-0.54;68.41;101811.84;1731477;81;21095;-58
2021/11/10 06:48:26;;;;;;;16.20;8.17;;;;;;;-0.46;68.32;101805.45;1730963;81;21080;-58
2021/11/10 06:50:53;;;;;;;19.13;9.43;;;;;;;-0.39;68.20;101806.99;1753544;80;21080;-58
2021/11/10 06:53:19;;;;;;;27.17;13.33;;;;;;;-0.33;68.12;101808.00;1722942;81;21053;-58
2021/11/10 06:55:45;;;;;;;28.90;14.27;;;;;;;-0.31;68.17;101804.56;1722352;81;22782;-59
2021/11/10 06:58:12;;;;;;;31.40;16.73;;;;;;;-0.27;68.04;101813.07;1755332;79;20934;-58
2021/11/10 07:00:39;;;;;;;30.90;17.47;;;;;;;-0.21;67.98;101812.34;1753054;80;21044;-59
2021/11/10 07:03:06;;;;;;;27.13;14.77;;;;;;;-0.14;67.92;101812.97;1727816;80;21221;-58
2021/11/10 07:05:33;;;;;;;26.67;15.03;;;;;;;-0.09;67.85;101801.67;1781390;80;21046;-58
2021/11/10 07:07:59;;;;;;;22.43;12.97;;;;;;;0.00;67.74;101801.03;1789071;79;21122;-58
2021/11/10 07:10:26;;;;;;;27.00;13.73;;;;;;;0.08;67.57;101799.91;1752914;79;21123;-60
2021/11/10 07:12:53;;;;;;;22.87;11.83;;;;;;;0.14;67.27;101789.47;1755103;79;21085;-58
2021/11/10 07:15:19;;;;;;;21.67;10.47;;;;;;;0.18;67.13;101785.59;1755135;80;21113;-60
2021/11/10 07:17:45;;;;;;;18.07;10.33;;;;;;;0.21;67.00;101777.75;1757786;80;21100;-58
2021/11/10 07:20:12;;;;;;;14.60;7.13;;;;;;;0.28;66.67;101784.09;1756033;79;21840;-58
2021/11/10 07:22:38;;;;;;;16.17;7.23;;;;;;;0.30;66.30;101784.60;1753980;80;21115;-57
2021/11/10 07:25:07;;;;;;;10.33;6.37;;;;;;;0.34;66.03;101788.24;1754648;79;21325;-57
2021/11/10 07:27:34;;;;;;;11.70;6.00;;;;;;;0.37;65.93;101785.64;1756531;80;21162;-57
2021/11/10 07:30:02;;;;;;;11.23;6.07;;;;;;;0.40;65.87;101780.86;1754023;80;21009;-58
2021/11/10 07:32:29;;;;;;;14.80;6.00;;;;;;;0.44;65.74;101775.66;1728752;80;21620;-57
2021/11/10 07:34:55;;;;;;;10.70;5.67;;;;;;;0.46;65.69;101780.58;1747967;80;21476;-58
2021/11/10 07:37:21;;;;;;;18.23;8.73;;;;;;;0.50;65.54;101781.56;1782594;79;21025;-57
2021/11/10 07:39:49;;;;;;;16.90;7.73;;;;;;;0.53;65.22;101763.97;1765024;79;21040;-57
2021/11/10 07:42:16;;;;;;;14.27;7.57;;;;;;;0.57;65.06;101776.45;1767220;79;21159;-56
2021/11/10 07:44:42;;;;;;;20.30;10.27;;;;;;;0.65;64.93;101759.41;1762784;79;21634;-54
2021/11/10 07:47:15;;;;;;;57.27;27.43;;;;;;;0.76;64.83;101755.27;1764323;79;21044;-54
2021/11/10 07:49:37;;;;;;;56.57;29.47;;;;;;;0.86;64.68;101753.69;1763800;79;21072;-54
2021/11/10 07:52:04;;;;;;;50.03;25.93;;;;;;;0.96;64.45;101758.34;1764562;79;21398;-54
2021/11/10 07:54:30;;;;;;;43.57;22.07;;;;;;;1.04;64.33;101760.30;1769591;79;21120;-54
2021/11/10 07:56:56;;;;;;;45.40;24.77;;;;;;;1.13;64.02;101762.27;1764118;79;21151;-54
2021/11/10 07:59:23;;;;;;;26.63;15.23;;;;;;;1.20;63.74;101772.14;1752478;79;21085;-54
2021/11/10 08:01:49;;;;;;;13.60;8.67;;;;;;;1.28;63.44;101777.61;1737303;80;21087;-54
2021/11/10 08:04:16;;;;;;;7.73;5.23;;;;;;;1.36;63.17;101776.91;1739569;80;21173;-55
2021/11/10 08:06:42;;;;;;;4.63;2.00;;;;;;;1.47;62.92;101776.71;1745184;80;21265;-55
2021/11/10 08:09:10;;;;;;;5.10;1.30;;;;;;;1.60;62.54;101772.56;1751321;80;21036;-54
2021/11/10 08:11:37;;;;;;;3.87;1.60;;;;;;;1.72;62.40;101778.53;1734982;80;21072;-55
2021/11/10 08:14:05;;;;;;;3.87;1.20;;;;;;;1.82;62.33;101784.49;1747724;80;21089;-55
2021/11/10 08:16:32;;;;;;;5.47;1.33;;;;;;;1.89;61.94;101779.76;1739583;80;21060;-55
2021/11/10 08:18:58;;;;;;;3.63;1.67;;;;;;;1.93;61.81;101784.27;1746899;80;21051;-55
2021/11/10 08:21:25;;;;;;;5.13;2.10;;;;;;;1.98;61.43;101784.34;1749859;80;21193;-55
2021/11/10 08:23:51;;;;;;;3.70;2.30;;;;;;;2.01;61.23;101779.10;1736777;80;21144;-55
2021/11/10 08:26:18;;;;;;;7.20;3.43;;;;;;;2.01;61.03;101776.45;1735338;80;21136;-55
2021/11/10 08:28:44;;;;;;;5.20;2.60;;;;;;;2.02;60.90;101784.45;1731591;80;21068;-55
2021/11/10 08:33:44;;;;;;;10.10;5.43;;;;;;;2.14;60.43;101781.10;1863528;74;26471;-55
2021/11/10 08:36:11;;;;;;;16.30;7.50;;;;;;;2.13;59.94;101778.87;1839169;75;20957;-55
2021/11/10 08:38:38;;;;;;;12.23;7.07;;;;;;;2.18;60.01;101774.56;1837987;77;22257;-55
2021/11/10 08:41:04;;;;;;;11.67;6.80;;;;;;;2.21;59.67;101777.25;1840711;77;21335;-55
2021/11/10 08:43:31;;;;;;;12.73;6.13;;;;;;;2.23;59.38;101774.20;1837752;76;20980;-55
2021/11/10 08:45:58;;;;;;;11.83;6.60;;;;;;;2.27;59.24;101775.16;1840542;75;21037;-55
2021/11/10 08:48:25;;;;;;;11.43;5.07;;;;;;;2.29;59.13;101772.10;1844206;75;21018;-55
2021/11/10 08:50:52;;;;;;;6.57;4.43;;;;;;;2.34;59.09;101770.84;1846407;76;21218;-55
2021/11/10 08:53:21;;;;;;;6.37;3.70;;;;;;;2.41;58.81;101770.06;1841058;75;20950;-55
2021/11/10 08:55:51;;;;;;;6.17;2.73;;;;;;;2.47;57.90;101778.13;1842385;76;20945;-55
2021/11/10 08:58:22;;;;;;;8.00;3.60;;;;;;;2.47;57.42;101771.48;1840962;76;20914;-58
2021/11/10 09:00:49;;;;;;;7.40;3.03;;;;;;;2.49;57.11;101769.76;1776235;78;21486;-54
2021/11/10 09:03:16;;;;;;;9.07;3.67;;;;;;;2.52;57.00;101764.50;1798842;77;21526;-53
2021/11/10 09:05:42;;;;;;;7.83;3.33;;;;;;;2.56;57.19;101754.36;1776263;78;21080;-53
2021/11/10 09:08:08;;;;;;;6.27;2.53;;;;;;;2.63;57.09;101755.84;1787882;78;21016;-53
2021/11/10 09:10:37;;;;;;;9.83;2.70;;;;;;;2.71;56.78;101757.29;1791590;78;22471;-54
2021/11/10 09:13:03;;;;;;;7.67;2.43;;;;;;;2.82;56.33;101750.34;1788616;78;22199;-54
2021/11/10 09:15:32;;;;;;;3.80;1.90;;;;;;;2.90;56.07;101750.02;1781231;79;21531;-53
2021/11/10 09:18:01;;;;;;;5.47;2.03;;;;;;;2.95;55.36;101752.77;1778423;78;21091;-54
2021/11/10 09:20:29;;;;;;;3.20;1.93;;;;;;;2.97;54.73;101758.58;1781064;78;21075;-53
2021/11/10 09:22:56;;;;;;;6.73;1.27;;;;;;;2.99;53.97;101748.83;1781293;78;21087;-56
2021/11/10 09:25:25;;;;;;;3.37;1.83;;;;;;;3.02;52.90;101747.98;1780677;79;21423;-56
2021/11/10 09:27:52;;;;;;;4.73;1.43;;;;;;;3.04;52.42;101746.25;1801564;77;21176;-55
2021/11/10 09:30:19;;;;;;;2.80;1.63;;;;;;;3.09;52.69;101747.19;1795948;77;21044;-55
2021/11/10 09:32:47;;;;;;;4.50;1.63;;;;;;;3.16;52.67;101748.16;1768716;78;22107;-55
2021/11/10 09:35:14;;;;;;;2.80;1.20;;;;;;;3.21;52.30;101749.13;1776489;78;21353;-55
2021/11/10 09:37:41;;;;;;;3.57;1.50;;;;;;;3.28;52.27;101747.00;1748255;80;21630;-55
2021/11/10 09:40:12;;;;;;;1.83;1.10;;;;;;;3.34;51.88;101747.08;1737525;79;22254;-55
2021/11/10 09:42:40;;;;;;;3.30;1.10;;;;;;;3.41;51.68;101740.51;1753183;79;21545;-56
2021/11/10 09:45:09;;;;;;;3.10;1.20;;;;;;;3.46;51.44;101744.58;1746025;79;21108;-56
2021/11/10 09:47:37;;;;;;;2.23;1.10;;;;;;;3.51;51.08;101744.62;1748921;79;20984;-54
2021/11/10 09:50:06;;;;;;;2.33;1.20;;;;;;;3.54;50.67;101748.66;1768392;78;21051;-56
2021/11/10 09:52:33;;;;;;;4.43;2.50;;;;;;;3.56;50.32;101750.48;1766168;78;21454;-56
2021/11/10 09:54:59;;;;;;;5.43;2.07;;;;;;;3.58;49.88;101746.03;1740435;80;21765;-55
2021/11/10 09:57:26;;;;;;;5.17;1.60;;;;;;;3.58;49.60;101750.03;1747792;80;21494;-56
2021/11/10 09:59:53;;;;;;;2.90;1.40;;;;;;;3.57;49.49;101751.38;1764276;78;21135;-56
2021/11/10 10:02:19;;;;;;;3.70;1.80;;;;;;;3.58;49.56;101753.13;1743788;80;21268;-56
2021/11/10 10:04:47;;;;;;;3.90;1.70;;;;;;;3.64;49.51;101750.56;1739080;80;21162;-54
2021/11/10 10:07:15;;;;;;;6.80;2.87;;;;;;;3.73;49.06;101749.34;1766348;78;21075;-54
2021/11/10 10:09:43;;;;;;;6.40;2.93;;;;;;;3.83;49.19;101749.01;1739823;80;21322;-54
2021/11/10 10:12:09;;;;;;;8.23;3.13;;;;;;;3.91;48.92;101742.88;1761280;78;21750;-54
2021/11/10 10:14:37;;;;;;;5.77;2.57;;;;;;;4.00;48.62;101746.05;1738851;79;21036;-55
2021/11/10 10:17:08;;;;;;;6.70;3.40;;;;;;;4.08;48.06;101740.39;1743641;79;21164;-54
2021/11/10 10:19:43;;;;;;;6.83;2.80;;;;;;;4.16;47.88;101745.34;1740268;79;21248;-54
2021/11/10 10:22:18;;;;;;;6.97;2.93;;;;;;;4.25;47.21;101737.44;1769239;78;20897;-55
2021/11/10 10:24:55;;;;;;;7.07;4.33;;;;;;;4.31;47.10;101728.16;1765083;78;21040;-55
2021/11/10 10:27:32;;;;;;;9.97;4.13;;;;;;;4.38;47.12;101721.09;1745075;80;20984;-55
2021/11/10 10:30:43;;;;;;;5.93;3.33;;;;;;;4.43;47.38;101719.34;1744042;80;21846;-55
2021/11/10 10:33:22;;;;;;;6.43;2.83;;;;;;;4.48;47.36;101711.84;1749496;80;21643;-55
2021/11/10 10:35:57;;;;;;;5.10;1.90;;;;;;;4.53;47.21;101710.09;1745553;80;20964;-55
2021/11/10 10:38:27;;;;;;;4.80;2.10;;;;;;;4.58;46.87;101713.25;1765658;78;20995;-54
2021/11/10 10:40:56;;;;;;;5.30;2.00;;;;;;;4.59;46.92;101700.38;1742798;80;21111;-55
2021/11/10 10:43:23;;;;;;;10.27;2.50;;;;;;;4.56;47.16;101692.80;1750694;80;21399;-54
2021/11/10 10:45:56;;;;;;;5.67;2.90;;;;;;;4.59;46.94;101696.38;1768857;78;20861;-55
2021/11/10 10:48:25;;;;;;;4.00;1.80;;;;;;;4.62;47.16;101704.37;1746366;80;20928;-55
2021/11/10 10:50:57;;;;;;;7.67;2.33;;;;;;;4.63;46.86;101702.16;1744839;80;21486;-54
2021/11/10 10:53:40;;;;;;;3.17;1.87;;;;;;;4.66;46.73;101695.09;1745526;80;21435;-55
2021/11/10 10:56:22;;;;;;;4.33;1.90;;;;;;;4.70;46.71;101703.55;1740569;80;21114;-55
2021/11/10 10:58:52;;;;;;;5.43;2.17;;;;;;;4.73;47.07;101692.02;1763109;78;21041;-55
2021/11/10 11:01:47;;;;;;;10.50;3.03;;;;;;;4.75;47.21;101691.15;1743187;80;21557;-54
2021/11/10 11:04:22;;;;;;;11.40;3.55;;;;;;;4.76;47.41;101692.94;1744011;80;26626;-54
2021/11/10 11:07:05;;;;;;;6.87;2.55;;;;;;;4.77;47.53;101695.13;1743885;80;21545;-54
2021/11/10 11:09:48;;;;;;;9.70;4.07;;;;;;;4.78;47.69;101700.92;1768927;78;20952;-54
2021/11/10 11:13:58;;;;;;;5.17;2.97;;;;;;;4.86;47.48;101680.08;1789805;78;26434;-55
2021/11/10 11:16:34;;;;;;;7.97;4.43;;;;;;;4.84;47.55;101679.64;1762289;79;20932;-56
2021/11/10 11:19:19;;;;;;;8.33;2.50;;;;;;;4.83;47.27;101681.85;1757662;79;21516;-57
2021/11/10 11:21:54;;;;;;;8.90;3.50;;;;;;;4.82;47.25;101696.07;1758493;79;21028;-54
2021/11/10 11:24:43;;;;;;;7.17;2.92;;;;;;;4.82;47.10;101698.73;1762910;79;20863;-56
2021/11/10 11:27:21;;;;;;;3.80;1.03;;;;;;;4.82;46.59;101696.07;1764181;79;21116;-56
2021/11/10 11:30:08;;;;;;;1.60;0.70;;;;;;;4.81;44.84;101690.28;1758467;79;21702;-55
2021/11/10 11:32:42;;;;;;;4.90;0.90;;;;;;;4.82;43.03;101698.73;1752955;79;21139;-55
2021/11/10 11:35:25;;;;;;;9.65;0.90;;;;;;;4.84;42.41;101690.31;1754573;80;20958;-55